Bei Facebook empfehlenBei Twitter postenGoogle plusPinterest

Das Wetter im Erzgebirge am 06.11.2015

Wetter und Klima am 06.11.2015 Holzhau im Erzgebirge (630m ü.NN)
Letzte gemessene Temperatur und Uhrzeit der Messung23:59:00 Uhr9.90 °C
Temperatur (Maximum / Höchstwert) und Uhrzeit der Messung14:14:00 Uhr17.30 °C
Temperatur (Minimum / Tiefstwert) und Uhrzeit der Messung02:14:003.40 °C
Errechneter Absolutwert der Temperaturschwankungen zwischen Tmin und Tmax des Tages13.90 K
Errechnete Tagesmitteltemperatur9.63125 °C
Gesamt - Niederschlag des Tages (in flüssiger Form)0.00 Liter / m²
Luftdruck (Maximum / Höchstwert) und Zeitpunkt der Messung18:29:00 Uhr1020.50 hPa
Luftdruck (Minimum / Tiefstwert) und Zeitpunkt der Messung13:44:00 Uhr1018.60 hPa
Errechneter Absolutwert der Luftdruckschwankungen des Tages1.90 hPa
Höchste gemessene Windgeschwindigkeit und Uhrzeit der Messung20:59:00 Uhr7.92 km/h
Errechnete Windhäufigkeit in Relation zu den Messwerten des Tages21.87500 %
Niedrigste Windkühle (Windchill) und Zeitpunkt der Messung02:14:00 Uhr3.40 °C
Taupunkt (Maximum / Höchstwert) und Uhrzeit der Messung12:44:00 Uhr13.70 °C
Taupunkt (Minimum / Tiefstwert) und Uhrzeit der Messung02:14:002.40 °C
Anzahl der automatisch eingelesenen Messwerte 96

Detaillierte Wetter- und Klima- Messwerte für den 06.11.2015 in Holzhau im Erzgebirge (630m ü.NN)
ZeitTemperaturLuftdruckRel. LuftfeuchteWindWindrichtungWindchillTaupunktNiederschlag l/m²
23:59:009.90 °C1019.60 hPa89.00 %8.20 °C 
23:44:0010.30 °C1019.70 hPa88.00 %7.56 km/hSSW9.50 °C8.40 °C 
23:29:0010.80 °C1019.80 hPa88.00 %8.90 °C 
23:14:0011.30 °C1020.00 hPa89.00 %9.60 °C 
22:59:0011.20 °C1020.10 hPa89.00 %9.50 °C 
22:44:0011.30 °C1020.00 hPa88.00 %2.88 km/hSW11.30 °C9.40 °C 
22:29:0011.60 °C1020.10 hPa88.00 %9.70 °C 
22:14:0011.80 °C1020.00 hPa88.00 %5.04 km/hSW11.80 °C9.90 °C 
21:59:0011.80 °C1019.90 hPa88.00 %5.76 km/hSW11.60 °C9.90 °C 
21:44:0011.80 °C1020.00 hPa88.00 %9.90 °C 
21:29:0011.80 °C1020.00 hPa88.00 %9.90 °C 
21:14:0011.80 °C1020.20 hPa88.00 %9.90 °C 
20:59:0011.80 °C1020.30 hPa88.00 %7.92 km/hSSW11.10 °C9.90 °C 
20:44:0011.60 °C1020.30 hPa88.00 %9.70 °C 
20:29:0011.20 °C1020.30 hPa88.00 %9.30 °C 
20:14:0011.10 °C1020.30 hPa88.00 %9.20 °C 
19:59:0011.10 °C1020.30 hPa88.00 %9.20 °C 
19:44:0010.50 °C1020.30 hPa88.00 %3.60 km/hWNW10.50 °C8.60 °C 
19:29:0010.20 °C1020.20 hPa87.00 %8.10 °C 
19:14:0010.60 °C1020.30 hPa87.00 %8.50 °C 
18:59:0010.70 °C1020.40 hPa86.00 %8.50 °C 
18:44:0010.70 °C1020.40 hPa86.00 %8.50 °C 
18:29:0010.80 °C1020.50 hPa86.00 %8.60 °C 
18:14:0010.90 °C1020.40 hPa85.00 %8.50 °C 
17:59:0010.90 °C1020.20 hPa84.00 %8.30 °C 
17:44:0010.90 °C1020.00 hPa84.00 %8.30 °C 
17:29:0011.00 °C1019.70 hPa83.00 %8.20 °C 
17:14:0010.90 °C1019.70 hPa81.00 %7.80 °C 
16:59:0011.40 °C1019.50 hPa80.00 %8.10 °C 
16:44:0012.40 °C1019.50 hPa79.00 %8.90 °C 
16:29:0013.00 °C1019.50 hPa77.00 %9.10 °C 
16:14:0013.80 °C1019.50 hPa75.00 %9.50 °C 
15:59:0014.20 °C1019.50 hPa74.00 %9.60 °C 
15:44:0014.80 °C1019.40 hPa72.00 %9.80 °C 
15:29:0015.30 °C1019.50 hPa71.00 %10.10 °C 
15:14:0015.80 °C1019.30 hPa70.00 %10.30 °C 
14:59:0016.30 °C1019.20 hPa69.00 %10.60 °C 
14:44:0016.90 °C1019.00 hPa70.00 %1.44 km/hWNW16.90 °C11.40 °C 
14:29:0017.10 °C1019.10 hPa71.00 %2.52 km/hWNW17.10 °C11.80 °C 
14:14:0017.30 °C1018.90 hPa74.00 %1.80 km/hWSW17.30 °C12.60 °C 
13:59:0016.80 °C1018.80 hPa79.00 %1.80 km/hSW16.80 °C13.10 °C 
13:44:0015.90 °C1018.60 hPa83.00 %13.00 °C 
13:29:0014.90 °C1018.70 hPa85.00 %12.40 °C 
13:14:0014.90 °C1018.90 hPa87.00 %12.80 °C 
12:59:0015.10 °C1019.20 hPa90.00 %13.50 °C 
12:44:0015.00 °C1019.20 hPa92.00 %13.70 °C 
12:29:0014.60 °C1019.30 hPa93.00 %13.50 °C 
12:14:0014.30 °C1019.10 hPa94.00 %13.30 °C 
11:59:0013.80 °C1019.20 hPa94.00 %12.90 °C 
11:44:0013.30 °C1019.40 hPa95.00 %12.50 °C 
11:29:0012.80 °C1019.40 hPa95.00 %12.00 °C 
11:14:0012.10 °C1019.50 hPa95.00 %11.30 °C 
10:59:0011.50 °C1019.50 hPa95.00 %10.70 °C 
10:44:0010.90 °C1019.40 hPa95.00 %10.10 °C 
10:29:0010.60 °C1019.30 hPa95.00 %9.80 °C 
10:14:0010.10 °C1019.20 hPa95.00 %9.30 °C 
09:59:009.60 °C1019.20 hPa95.00 %8.80 °C 
09:44:009.30 °C1019.10 hPa95.00 %8.50 °C 
09:29:008.80 °C1019.00 hPa95.00 %1.80 km/hOSO8.80 °C8.00 °C 
09:14:007.90 °C1019.30 hPa95.00 %7.10 °C 
08:59:007.50 °C1019.30 hPa95.00 %6.80 °C 
08:44:006.90 °C1019.30 hPa95.00 %6.20 °C 
08:29:006.30 °C1019.30 hPa95.00 %2.52 km/hOSO6.30 °C5.60 °C 
08:14:005.90 °C1019.30 hPa95.00 %5.20 °C 
07:59:005.50 °C1019.10 hPa95.00 %4.80 °C 
07:44:005.40 °C1019.20 hPa94.00 %4.50 °C 
07:29:005.40 °C1019.30 hPa94.00 %4.50 °C 
07:14:005.60 °C1019.20 hPa94.00 %4.70 °C 
06:59:005.80 °C1019.20 hPa94.00 %4.90 °C 
06:44:005.90 °C1019.00 hPa94.00 %2.16 km/hO5.90 °C5.00 °C 
06:29:006.30 °C1019.20 hPa94.00 %1.80 km/hOSO6.30 °C5.40 °C 
06:14:006.20 °C1019.00 hPa94.00 %2.52 km/hO6.20 °C5.30 °C 
05:59:005.90 °C1019.00 hPa94.00 %1.44 km/hOSO5.90 °C5.00 °C 
05:44:005.90 °C1018.80 hPa94.00 %5.00 °C 
05:29:005.90 °C1018.90 hPa94.00 %5.00 °C 
05:14:005.90 °C1018.80 hPa94.00 %5.00 °C 
04:59:005.80 °C1018.90 hPa94.00 %4.90 °C 
04:44:005.60 °C1018.80 hPa94.00 %2.88 km/hO5.60 °C4.70 °C 
04:29:005.60 °C1019.00 hPa94.00 %4.70 °C 
04:14:005.40 °C1019.00 hPa94.00 %4.50 °C 
03:59:005.30 °C1018.80 hPa94.00 %2.52 km/hOSO5.30 °C4.40 °C 
03:44:004.90 °C1019.00 hPa93.00 %3.90 °C 
03:29:004.90 °C1019.00 hPa93.00 %1.44 km/hOSO4.90 °C3.90 °C 
03:14:004.50 °C1018.80 hPa93.00 %3.50 °C 
02:59:004.10 °C1019.20 hPa93.00 %3.10 °C 
02:44:003.70 °C1019.20 hPa93.00 %0.72 km/hOSO3.70 °C2.70 °C 
02:29:003.60 °C1019.20 hPa93.00 %2.60 °C 
02:14:003.40 °C1019.30 hPa93.00 %2.40 °C 
01:59:003.50 °C1019.10 hPa93.00 %2.50 °C 
01:44:003.80 °C1019.10 hPa93.00 %2.80 °C 
01:29:003.60 °C1019.20 hPa93.00 %1.80 km/hO3.60 °C2.60 °C 
01:14:003.80 °C1019.30 hPa92.00 %2.60 °C 
00:59:004.10 °C1019.00 hPa92.00 %2.90 °C 
00:44:003.90 °C1019.20 hPa92.00 %2.70 °C 
00:29:003.80 °C1018.90 hPa92.00 %2.60 °C 
00:14:004.20 °C1019.20 hPa92.00 %3.00 °C 

Permanenter Link zu dieser Seite: Wetter im Erzgebirge am 06.11.2015
Performance-Info: Die Erstellung der Seite / Statistik(en) / Tabelle(n) erforderte 5 Datenbankserver-Abfrage(n) und dauerte 130 Millisekunden. (Dieser Messwert ist von der Gesamt-Auslastung des Servers abhängig.)
Erzgebirge - Wetter | Erzgebirge - Wetter (Mobilgeräte) | Komplette Klimadatenbank